Aeroporto :
LOGIN :

Iscrizione | Disclaimer

   EN    FR    IT 

 










Sommario :    VFR   VFR Marginale   IFR   IFR Intensivo   IFR Molto Intensivo
Visibilità : 
Base nubi : 
>= 8 km
>= 3000ft
5 / 8 km
1000 / 3000 ft
1500m / 5 km
500 / 1000 ft
800 / 1500m
200 / 500 ft
< 800m
< 200 ft
Simboli :   Temporali  Nebbia  Neve Forte  Precipitazioni Forti  Vento > 20 kt
SIGMETs :   Varie  Temporali  Ghiacco  Turbolenza  Onda orograficha  Ceneri Vulcaniche







- Altitudine del aeroporto : 194 ft
- Codice IATA : ANE
- Carte del aeroporto


LFJR - Angers Marcé

ULTIMO METAR :
  • 181200Z AUTO 16013KT CAVOK 09/04 Q1012 NOSIG

METARs OBSOLETI :
  • 181130Z AUTO 15012KT 120V180 CAVOK 08/04 Q1013 NOSIG
  • 181100Z AUTO 14011KT CAVOK 08/04 Q1014 NOSIG
  • 181030Z AUTO 14011KT CAVOK 07/04 Q1015 NOSIG
  • 181000Z AUTO 14011KT CAVOK 07/04 Q1015 NOSIG
  • 180930Z AUTO 14011KT CAVOK 06/04 Q1016 NOSIG

TAF TAF LFJR
Valido dal 18 a 12 ore il 18 a 21 ore UTC


181100Z 1812/1821 14013KT CAVOK
BECMG 1816/1818 3000 RA BKN014 BKN030
TEMPO 1818/1821 BKN008
Nessun NOTAM noto per questo aeroporto.
2 SIGMETs conosciuti per la FIR Brest (LFRR) :
 
Turbolenza severa
LFRR SIGMET 4 VALID 181300/181600 LFPW
LFRR BREST FIR/UIR SEV TURB FCST W OF LINE N4500 W00800 - N4915 W00715 FL180/320 MOV E 20KT NC=
Turbolenza severa
LFRR SIGMET 3 VALID 181100/181300 LFPW
LFRR BREST FIR/UIR SEV TURB FCST WI N4915 W00545 - N5000 W00200 - N5000 W00100 - N4900 W00115 - N4730 W00430 - N4730 W00645 - N4915 W00545 SFC/FL060 MOV E 10KT WKN=



MetMap, La meteo Aeronautica in un colpo d'occhio ! - Copyright ORBIFLY Dicembre 2007 - Disclaimer

ORBIFLY MET'MAP TEAM :

Programmazione e sviluppo : Alexandra Zaïnal
Concezione e sviluppo : Baudouin d'Aumeries
Co-Programmazione e sviluppo : Marc-Olivier Méhu
Supporto tecnico e logistico : Manuel Goepfert
Aiuto per la traduzione : Arnaldo La Scala

Contatto : metmap@orbifly.com




FONTI E CREDITI :

   NOAA